sensor_id;sensor_type;location;lat;lon;timestamp;pressure;altitude;pressure_sealevel;temperature;humidity
30682;BME280;17439;48.092;11.842;2024-01-30T00:00:25;96813.47;;;1.86;70.58
30682;BME280;17439;48.092;11.842;2024-01-30T00:02:52;96804.06;;;1.83;70.58
30682;BME280;17439;48.092;11.842;2024-01-30T00:05:18;96820.13;;;1.83;70.54
30682;BME280;17439;48.092;11.842;2024-01-30T00:07:45;96821.34;;;1.80;70.71
30682;BME280;17439;48.092;11.842;2024-01-30T00:10:12;96808.44;;;1.77;70.83
30682;BME280;17439;48.092;11.842;2024-01-30T00:12:39;96814.81;;;1.76;71.06
30682;BME280;17439;48.092;11.842;2024-01-30T00:15:05;96816.09;;;1.74;70.95
30682;BME280;17439;48.092;11.842;2024-01-30T00:17:32;96813.63;;;1.72;70.65
30682;BME280;17439;48.092;11.842;2024-01-30T00:19:59;96815.69;;;1.70;70.61
30682;BME280;17439;48.092;11.842;2024-01-30T00:22:26;96816.75;;;1.69;70.88
30682;BME280;17439;48.092;11.842;2024-01-30T00:24:53;96817.78;;;1.68;70.97
30682;BME280;17439;48.092;11.842;2024-01-30T00:27:20;96811.03;;;1.66;71.14
30682;BME280;17439;48.092;11.842;2024-01-30T00:29:46;96817.41;;;1.65;71.27
30682;BME280;17439;48.092;11.842;2024-01-30T00:32:13;96821.09;;;1.63;71.14
30682;BME280;17439;48.092;11.842;2024-01-30T00:34:41;96814.94;;;1.63;70.86
30682;BME280;17439;48.092;11.842;2024-01-30T00:37:08;96823.19;;;1.61;71.05
30682;BME280;17439;48.092;11.842;2024-01-30T00:39:35;96826.88;;;1.60;70.85
30682;BME280;17439;48.092;11.842;2024-01-30T00:42:02;96816.19;;;1.60;71.10
30682;BME280;17439;48.092;11.842;2024-01-30T00:44:29;96812.13;;;1.58;71.13
30682;BME280;17439;48.092;11.842;2024-01-30T00:46:56;96822.81;;;1.58;71.09
30682;BME280;17439;48.092;11.842;2024-01-30T00:49:23;96818.50;;;1.57;71.28
30682;BME280;17439;48.092;11.842;2024-01-30T00:51:49;96819.53;;;1.56;71.28
30682;BME280;17439;48.092;11.842;2024-01-30T00:54:16;96817.91;;;1.55;71.28
30682;BME280;17439;48.092;11.842;2024-01-30T00:56:43;96818.13;;;1.53;71.42
30682;BME280;17439;48.092;11.842;2024-01-30T00:59:11;96821.59;;;1.54;71.20
30682;BME280;17439;48.092;11.842;2024-01-30T01:01:38;96821.59;;;1.54;71.16
30682;BME280;17439;48.092;11.842;2024-01-30T01:04:05;96819.16;;;1.52;71.02
30682;BME280;17439;48.092;11.842;2024-01-30T01:06:31;96817.53;;;1.51;71.06
30682;BME280;17439;48.092;11.842;2024-01-30T01:08:58;96813.22;;;1.50;70.93
30682;BME280;17439;48.092;11.842;2024-01-30T01:11:28;96816.91;;;1.49;71.05
30682;BME280;17439;48.092;11.842;2024-01-30T01:13:55;96818.78;;;1.49;70.96
30682;BME280;17439;48.092;11.842;2024-01-30T01:16:22;96821.44;;;1.49;70.80
30682;BME280;17439;48.092;11.842;2024-01-30T01:18:49;96821.91;;;1.45;70.70
30682;BME280;17439;48.092;11.842;2024-01-30T01:21:15;96821.91;;;1.45;70.96
30682;BME280;17439;48.092;11.842;2024-01-30T01:23:42;96825.00;;;1.42;71.04
30682;BME280;17439;48.092;11.842;2024-01-30T01:26:09;96825.00;;;1.42;70.83
30682;BME280;17439;48.092;11.842;2024-01-30T01:28:35;96827.09;;;1.40;70.86
30682;BME280;17439;48.092;11.842;2024-01-30T01:31:02;96822.75;;;1.39;70.98
30682;BME280;17439;48.092;11.842;2024-01-30T01:33:29;96828.09;;;1.39;71.19
30682;BME280;17439;48.092;11.842;2024-01-30T01:35:56;96821.13;;;1.38;71.40
30682;BME280;17439;48.092;11.842;2024-01-30T01:38:23;96824.00;;;1.37;71.57
30682;BME280;17439;48.092;11.842;2024-01-30T01:40:49;96820.53;;;1.36;71.45
30682;BME280;17439;48.092;11.842;2024-01-30T01:43:16;96816.00;;;1.37;71.52
30682;BME280;17439;48.092;11.842;2024-01-30T01:45:46;96826.69;;;1.37;71.45
30682;BME280;17439;48.092;11.842;2024-01-30T01:48:13;96818.91;;;1.35;71.15
30682;BME280;17439;48.092;11.842;2024-01-30T01:50:41;96817.25;;;1.34;70.85
30682;BME280;17439;48.092;11.842;2024-01-30T01:53:09;96819.13;;;1.34;70.87
30682;BME280;17439;48.092;11.842;2024-01-30T01:55:37;96807.81;;;1.32;70.96
30682;BME280;17439;48.092;11.842;2024-01-30T01:58:04;96816.06;;;1.30;71.05
30682;BME280;17439;48.092;11.842;2024-01-30T02:00:31;96812.56;;;1.30;71.01
30682;BME280;17439;48.092;11.842;2024-01-30T02:02:58;96817.09;;;1.29;71.01
30682;BME280;17439;48.092;11.842;2024-01-30T02:05:26;96811.13;;;1.27;71.02
30682;BME280;17439;48.092;11.842;2024-01-30T02:07:53;96806.00;;;1.25;71.11
30682;BME280;17439;48.092;11.842;2024-01-30T02:10:21;96810.34;;;1.26;70.97
30682;BME280;17439;48.092;11.842;2024-01-30T02:12:48;96822.88;;;1.26;71.00
30682;BME280;17439;48.092;11.842;2024-01-30T02:15:15;96812.41;;;1.24;71.12
30682;BME280;17439;48.092;11.842;2024-01-30T02:17:42;96816.13;;;1.23;70.95
30682;BME280;17439;48.092;11.842;2024-01-30T02:20:09;96810.75;;;1.23;70.84
30682;BME280;17439;48.092;11.842;2024-01-30T02:22:37;96817.34;;;1.21;70.41
30682;BME280;17439;48.092;11.842;2024-01-30T02:25:04;96825.38;;;1.21;70.43
30682;BME280;17439;48.092;11.842;2024-01-30T02:27:31;96816.75;;;1.19;70.47
30682;BME280;17439;48.092;11.842;2024-01-30T02:29:58;96813.28;;;1.18;70.64
30682;BME280;17439;48.092;11.842;2024-01-30T02:32:24;96829.53;;;1.17;70.55
30682;BME280;17439;48.092;11.842;2024-01-30T02:34:51;96828.94;;;1.15;70.41
30682;BME280;17439;48.092;11.842;2024-01-30T02:37:18;96822.75;;;1.14;70.70
30682;BME280;17439;48.092;11.842;2024-01-30T02:39:45;96816.00;;;1.12;70.61
30682;BME280;17439;48.092;11.842;2024-01-30T02:42:12;96812.50;;;1.11;71.10
30682;BME280;17439;48.092;11.842;2024-01-30T02:44:38;96819.72;;;1.11;72.29
30682;BME280;17439;48.092;11.842;2024-01-30T02:47:05;96813.34;;;1.12;72.93
30682;BME280;17439;48.092;11.842;2024-01-30T02:49:32;96811.47;;;1.12;73.20
30682;BME280;17439;48.092;11.842;2024-01-30T02:51:59;96815.78;;;1.13;73.13
30682;BME280;17439;48.092;11.842;2024-01-30T02:54:25;96807.56;;;1.15;73.49
30682;BME280;17439;48.092;11.842;2024-01-30T02:56:52;96815.16;;;1.18;73.41
30682;BME280;17439;48.092;11.842;2024-01-30T02:59:19;96814.09;;;1.19;73.11
30682;BME280;17439;48.092;11.842;2024-01-30T03:01:46;96807.94;;;1.18;73.05
30682;BME280;17439;48.092;11.842;2024-01-30T03:04:13;96810.41;;;1.20;72.89
30682;BME280;17439;48.092;11.842;2024-01-30T03:06:45;96797.03;;;1.20;71.89
30682;BME280;17439;48.092;11.842;2024-01-30T03:09:12;96795.97;;;1.21;72.58
30682;BME280;17439;48.092;11.842;2024-01-30T03:11:38;96798.06;;;1.19;72.42
30682;BME280;17439;48.092;11.842;2024-01-30T03:14:05;96799.72;;;1.20;72.35
30682;BME280;17439;48.092;11.842;2024-01-30T03:16:32;96792.72;;;1.19;72.29
30682;BME280;17439;48.092;11.842;2024-01-30T03:18:59;96798.06;;;1.19;71.93
30682;BME280;17439;48.092;11.842;2024-01-30T03:21:25;96797.47;;;1.17;71.66
30682;BME280;17439;48.092;11.842;2024-01-30T03:23:52;96794.22;;;1.15;71.66
30682;BME280;17439;48.092;11.842;2024-01-30T03:26:19;96793.16;;;1.16;71.43
30682;BME280;17439;48.092;11.842;2024-01-30T03:28:46;96793.59;;;1.13;71.38
30682;BME280;17439;48.092;11.842;2024-01-30T03:31:14;96800.78;;;1.12;71.16
30682;BME280;17439;48.092;11.842;2024-01-30T03:33:41;96798.34;;;1.11;71.15
30682;BME280;17439;48.092;11.842;2024-01-30T03:36:08;96794.03;;;1.09;70.96
30682;BME280;17439;48.092;11.842;2024-01-30T03:38:35;96796.09;;;1.07;70.86
30682;BME280;17439;48.092;11.842;2024-01-30T03:41:02;96799.00;;;1.06;70.97
30682;BME280;17439;48.092;11.842;2024-01-30T03:43:29;96799.41;;;1.03;70.90
30682;BME280;17439;48.092;11.842;2024-01-30T03:45:56;96792.47;;;1.02;70.96
30682;BME280;17439;48.092;11.842;2024-01-30T03:48:22;96790.00;;;1.00;71.19
30682;BME280;17439;48.092;11.842;2024-01-30T03:50:49;96793.69;;;0.99;71.02
30682;BME280;17439;48.092;11.842;2024-01-30T03:53:17;96789.38;;;0.98;71.28
30682;BME280;17439;48.092;11.842;2024-01-30T03:55:43;96788.56;;;0.98;71.25
30682;BME280;17439;48.092;11.842;2024-01-30T03:58:10;96784.03;;;0.98;71.34
30682;BME280;17439;48.092;11.842;2024-01-30T04:00:37;96793.91;;;0.98;71.22
30682;BME280;17439;48.092;11.842;2024-01-30T04:03:04;96789.59;;;0.97;71.01
30682;BME280;17439;48.092;11.842;2024-01-30T04:05:31;96790.44;;;0.97;71.01
30682;BME280;17439;48.092;11.842;2024-01-30T04:07:58;96787.16;;;0.95;70.76
30682;BME280;17439;48.092;11.842;2024-01-30T04:10:25;96789.81;;;0.95;70.89
30682;BME280;17439;48.092;11.842;2024-01-30T04:12:52;96784.69;;;0.94;71.07
30682;BME280;17439;48.092;11.842;2024-01-30T04:15:19;96789.22;;;0.93;71.28
30682;BME280;17439;48.092;11.842;2024-01-30T04:17:46;96789.22;;;0.93;71.25
30682;BME280;17439;48.092;11.842;2024-01-30T04:20:15;96791.88;;;0.93;70.73
30682;BME280;17439;48.092;11.842;2024-01-30T04:22:46;96790.03;;;0.94;70.67
30682;BME280;17439;48.092;11.842;2024-01-30T04:25:13;96788.19;;;0.94;71.15
30682;BME280;17439;48.092;11.842;2024-01-30T04:27:40;96797.81;;;0.95;71.13
30682;BME280;17439;48.092;11.842;2024-01-30T04:30:07;96792.47;;;0.95;71.32
30682;BME280;17439;48.092;11.842;2024-01-30T04:32:34;96786.34;;;0.95;71.20
30682;BME280;17439;48.092;11.842;2024-01-30T04:35:02;96787.16;;;0.95;71.12
30682;BME280;17439;48.092;11.842;2024-01-30T04:37:33;96781.00;;;0.95;71.04
30682;BME280;17439;48.092;11.842;2024-01-30T04:39:59;96780.78;;;0.96;70.96
30682;BME280;17439;48.092;11.842;2024-01-30T04:42:26;96779.97;;;0.96;70.96
30682;BME280;17439;48.092;11.842;2024-01-30T04:44:53;96785.53;;;0.94;70.85
30682;BME280;17439;48.092;11.842;2024-01-30T04:47:20;96781.81;;;0.95;70.85
30682;BME280;17439;48.092;11.842;2024-01-30T04:49:46;96786.56;;;0.93;70.78
30682;BME280;17439;48.092;11.842;2024-01-30T04:52:13;96785.53;;;0.94;70.84
30682;BME280;17439;48.092;11.842;2024-01-30T04:54:40;96788.19;;;0.94;70.64
30682;BME280;17439;48.092;11.842;2024-01-30T04:57:07;96788.41;;;0.93;70.70
30682;BME280;17439;48.092;11.842;2024-01-30T04:59:33;96792.09;;;0.92;70.81
30682;BME280;17439;48.092;11.842;2024-01-30T05:02:00;96803.59;;;0.92;70.97
30682;BME280;17439;48.092;11.842;2024-01-30T05:04:27;96796.63;;;0.91;70.80
30682;BME280;17439;48.092;11.842;2024-01-30T05:06:54;96797.44;;;0.92;70.87
30682;BME280;17439;48.092;11.842;2024-01-30T05:09:20;96796.63;;;0.91;70.86
30682;BME280;17439;48.092;11.842;2024-01-30T05:11:47;96796.63;;;0.91;70.67
30682;BME280;17439;48.092;11.842;2024-01-30T05:14:14;96798.47;;;0.90;70.83
30682;BME280;17439;48.092;11.842;2024-01-30T05:16:41;96799.31;;;0.91;70.74
30682;BME280;17439;48.092;11.842;2024-01-30T05:19:08;96795.81;;;0.90;70.90
30682;BME280;17439;48.092;11.842;2024-01-30T05:21:34;96805.69;;;0.90;70.79
30682;BME280;17439;48.092;11.842;2024-01-30T05:24:01;96800.34;;;0.90;70.82
30682;BME280;17439;48.092;11.842;2024-01-30T05:26:28;96800.56;;;0.88;70.79
30682;BME280;17439;48.092;11.842;2024-01-30T05:28:54;96799.75;;;0.88;70.53
30682;BME280;17439;48.092;11.842;2024-01-30T05:31:21;96795.22;;;0.88;70.52
30682;BME280;17439;48.092;11.842;2024-01-30T05:33:48;96802.41;;;0.88;70.49
30682;BME280;17439;48.092;11.842;2024-01-30T05:36:15;96799.97;;;0.86;70.59
30682;BME280;17439;48.092;11.842;2024-01-30T05:38:42;96802.03;;;0.84;70.65
30682;BME280;17439;48.092;11.842;2024-01-30T05:41:08;96802.84;;;0.85;70.84
30682;BME280;17439;48.092;11.842;2024-01-30T05:43:35;96806.53;;;0.84;70.85
30682;BME280;17439;48.092;11.842;2024-01-30T05:46:02;96810.03;;;0.84;71.10
30682;BME280;17439;48.092;11.842;2024-01-30T05:48:29;96810.03;;;0.84;70.92
30682;BME280;17439;48.092;11.842;2024-01-30T05:50:55;96812.72;;;0.84;70.78
30682;BME280;17439;48.092;11.842;2024-01-30T05:53:22;96814.34;;;0.85;70.80
30682;BME280;17439;48.092;11.842;2024-01-30T05:55:49;96815.13;;;0.86;70.64
30682;BME280;17439;48.092;11.842;2024-01-30T05:58:15;96816.78;;;0.87;70.53
30682;BME280;17439;48.092;11.842;2024-01-30T06:00:42;96807.97;;;0.86;70.83
30682;BME280;17439;48.092;11.842;2024-01-30T06:03:09;96815.97;;;0.86;70.79
30682;BME280;17439;48.092;11.842;2024-01-30T06:05:36;96815.97;;;0.86;70.93
30682;BME280;17439;48.092;11.842;2024-01-30T06:08:03;96815.13;;;0.86;71.21
30682;BME280;17439;48.092;11.842;2024-01-30T06:10:30;96811.88;;;0.84;71.05
30682;BME280;17439;48.092;11.842;2024-01-30T06:12:57;96810.63;;;0.86;71.04
30682;BME280;17439;48.092;11.842;2024-01-30T06:15:23;96815.75;;;0.88;70.97
30682;BME280;17439;48.092;11.842;2024-01-30T06:17:50;96821.09;;;0.88;70.97
30682;BME280;17439;48.092;11.842;2024-01-30T06:20:17;96821.09;;;0.88;70.85
30682;BME280;17439;48.092;11.842;2024-01-30T06:22:44;96816.78;;;0.87;70.82
30682;BME280;17439;48.092;11.842;2024-01-30T06:25:11;96820.47;;;0.86;70.81
30682;BME280;17439;48.092;11.842;2024-01-30T06:27:37;96825.59;;;0.87;70.70
30682;BME280;17439;48.092;11.842;2024-01-30T06:30:05;96823.16;;;0.86;70.58
30682;BME280;17439;48.092;11.842;2024-01-30T06:32:32;96823.16;;;0.86;70.62
30682;BME280;17439;48.092;11.842;2024-01-30T06:34:58;96822.56;;;0.84;70.40
30682;BME280;17439;48.092;11.842;2024-01-30T06:37:25;96831.41;;;0.84;70.66
30682;BME280;17439;48.092;11.842;2024-01-30T06:39:52;96830.56;;;0.84;70.75
30682;BME280;17439;48.092;11.842;2024-01-30T06:42:19;96825.22;;;0.84;70.95
30682;BME280;17439;48.092;11.842;2024-01-30T06:44:46;96833.22;;;0.84;70.67
30682;BME280;17439;48.092;11.842;2024-01-30T06:47:13;96833.22;;;0.84;70.88
30682;BME280;17439;48.092;11.842;2024-01-30T06:49:40;96831.41;;;0.84;71.12
30682;BME280;17439;48.092;11.842;2024-01-30T06:52:06;96832.22;;;0.85;71.10
30682;BME280;17439;48.092;11.842;2024-01-30T06:54:33;96846.38;;;0.85;71.27
30682;BME280;17439;48.092;11.842;2024-01-30T06:57:00;96843.69;;;0.85;71.38
30682;BME280;17439;48.092;11.842;2024-01-30T06:59:27;96838.16;;;0.87;71.29
30682;BME280;17439;48.092;11.842;2024-01-30T07:01:54;96841.41;;;0.89;71.37
30682;BME280;17439;48.092;11.842;2024-01-30T07:04:21;96842.25;;;0.89;71.61
30682;BME280;17439;48.092;11.842;2024-01-30T07:06:48;96842.03;;;0.91;71.61
30682;BME280;17439;48.092;11.842;2024-01-30T07:09:17;96841.81;;;0.93;71.70
30682;BME280;17439;48.092;11.842;2024-01-30T07:11:44;96847.75;;;0.95;71.75
30682;BME280;17439;48.092;11.842;2024-01-30T07:14:11;96851.03;;;0.97;71.97
30682;BME280;17439;48.092;11.842;2024-01-30T07:16:37;96857.78;;;0.99;72.13
30682;BME280;17439;48.092;11.842;2024-01-30T07:19:04;96850.38;;;1.01;72.09
30682;BME280;17439;48.092;11.842;2024-01-30T07:21:31;96850.97;;;1.03;72.30
30682;BME280;17439;48.092;11.842;2024-01-30T07:23:58;96858.56;;;1.06;72.27
30682;BME280;17439;48.092;11.842;2024-01-30T07:26:24;96851.75;;;1.11;72.33
30682;BME280;17439;48.092;11.842;2024-01-30T07:28:51;96848.66;;;1.14;72.49
30682;BME280;17439;48.092;11.842;2024-01-30T07:31:18;96857.28;;;1.16;72.86
30682;BME280;17439;48.092;11.842;2024-01-30T07:33:45;96855.81;;;1.20;72.87
30682;BME280;17439;48.092;11.842;2024-01-30T07:36:11;96856.19;;;1.23;73.11
30682;BME280;17439;48.092;11.842;2024-01-30T07:38:38;96864.59;;;1.27;73.19
30682;BME280;17439;48.092;11.842;2024-01-30T07:41:05;96860.22;;;1.33;73.18
30682;BME280;17439;48.092;11.842;2024-01-30T07:43:35;96865.16;;;1.36;72.54
30682;BME280;17439;48.092;11.842;2024-01-30T07:46:02;96856.47;;;1.40;73.74
30682;BME280;17439;48.092;11.842;2024-01-30T07:48:28;96860.34;;;1.44;73.69
30682;BME280;17439;48.092;11.842;2024-01-30T07:50:55;96862.34;;;1.49;73.86
30682;BME280;17439;48.092;11.842;2024-01-30T07:53:22;96856.34;;;1.54;74.19
30682;BME280;17439;48.092;11.842;2024-01-30T07:55:48;96863.50;;;1.60;74.17
30682;BME280;17439;48.092;11.842;2024-01-30T07:58:15;96855.06;;;1.63;74.33
30682;BME280;17439;48.092;11.842;2024-01-30T08:00:42;96856.63;;;1.71;74.68
30682;BME280;17439;48.092;11.842;2024-01-30T08:03:09;96863.78;;;1.77;74.82
30682;BME280;17439;48.092;11.842;2024-01-30T08:05:36;96860.44;;;1.81;75.07
30682;BME280;17439;48.092;11.842;2024-01-30T08:08:02;96858.50;;;1.89;75.30
30682;BME280;17439;48.092;11.842;2024-01-30T08:10:29;96859.50;;;1.94;75.24
30682;BME280;17439;48.092;11.842;2024-01-30T08:12:56;96862.09;;;2.01;75.39
30682;BME280;17439;48.092;11.842;2024-01-30T08:15:23;96857.69;;;2.07;75.44
30682;BME280;17439;48.092;11.842;2024-01-30T08:17:50;96862.16;;;2.13;75.79
30682;BME280;17439;48.092;11.842;2024-01-30T08:20:16;96861.06;;;2.21;75.90
30682;BME280;17439;48.092;11.842;2024-01-30T08:22:43;96856.69;;;2.26;75.95
30682;BME280;17439;48.092;11.842;2024-01-30T08:25:10;96866.28;;;2.34;76.12
30682;BME280;17439;48.092;11.842;2024-01-30T08:27:37;96862.69;;;2.40;76.30
30682;BME280;17439;48.092;11.842;2024-01-30T08:30:06;96863.44;;;2.47;75.98
30682;BME280;17439;48.092;11.842;2024-01-30T08:32:33;96855.09;;;2.56;76.42
30682;BME280;17439;48.092;11.842;2024-01-30T08:35:00;96853.38;;;2.61;76.54
30682;BME280;17439;48.092;11.842;2024-01-30T08:37:27;96852.25;;;2.69;76.86
30682;BME280;17439;48.092;11.842;2024-01-30T08:39:54;96864.28;;;2.78;76.75
30682;BME280;17439;48.092;11.842;2024-01-30T08:42:21;96855.31;;;2.84;76.94
30682;BME280;17439;48.092;11.842;2024-01-30T08:44:50;96862.22;;;2.92;76.15
30682;BME280;17439;48.092;11.842;2024-01-30T08:47:17;96858.44;;;3.00;77.26
30682;BME280;17439;48.092;11.842;2024-01-30T08:49:44;96857.28;;;3.07;77.61
30682;BME280;17439;48.092;11.842;2024-01-30T08:52:11;96856.97;;;3.16;77.88
30682;BME280;17439;48.092;11.842;2024-01-30T08:54:37;96860.09;;;3.24;78.46
30682;BME280;17439;48.092;11.842;2024-01-30T08:57:05;96857.13;;;3.33;78.52
30682;BME280;17439;48.092;11.842;2024-01-30T08:59:31;96857.59;;;3.41;79.37
30682;BME280;17439;48.092;11.842;2024-01-30T09:01:58;96858.66;;;3.52;79.77
30682;BME280;17439;48.092;11.842;2024-01-30T09:04:37;96860.53;;;3.63;80.12
30682;BME280;17439;48.092;11.842;2024-01-30T09:07:04;96863.44;;;3.74;80.65
30682;BME280;17439;48.092;11.842;2024-01-30T09:09:31;96866.38;;;3.84;80.94
30682;BME280;17439;48.092;11.842;2024-01-30T09:11:58;96860.44;;;3.94;81.30
30682;BME280;17439;48.092;11.842;2024-01-30T09:14:25;96869.28;;;4.06;81.77
30682;BME280;17439;48.092;11.842;2024-01-30T09:16:51;96871.16;;;4.17;81.88
30682;BME280;17439;48.092;11.842;2024-01-30T09:19:18;96874.88;;;4.28;82.40
30682;BME280;17439;48.092;11.842;2024-01-30T09:21:45;96868.66;;;4.40;82.51
30682;BME280;17439;48.092;11.842;2024-01-30T09:24:12;96867.03;;;4.50;82.75
30682;BME280;17439;48.092;11.842;2024-01-30T09:26:38;96876.69;;;4.63;82.76
30682;BME280;17439;48.092;11.842;2024-01-30T09:29:05;96882.81;;;4.76;83.11
30682;BME280;17439;48.092;11.842;2024-01-30T09:31:32;96879.06;;;4.88;83.69
30682;BME280;17439;48.092;11.842;2024-01-30T09:33:59;96875.50;;;5.00;83.69
30682;BME280;17439;48.092;11.842;2024-01-30T09:36:26;96878.94;;;5.12;83.65
30682;BME280;17439;48.092;11.842;2024-01-30T09:38:52;96871.63;;;5.24;83.85
30682;BME280;17439;48.092;11.842;2024-01-30T09:41:19;96876.97;;;5.36;84.03
30682;BME280;17439;48.092;11.842;2024-01-30T09:43:50;96882.03;;;5.50;84.46
30682;BME280;17439;48.092;11.842;2024-01-30T09:46:17;96884.63;;;5.61;84.37
30682;BME280;17439;48.092;11.842;2024-01-30T09:48:46;96883.75;;;5.73;83.06
30682;BME280;17439;48.092;11.842;2024-01-30T09:51:14;96880.97;;;5.85;84.01
30682;BME280;17439;48.092;11.842;2024-01-30T09:53:42;96874.69;;;5.96;83.83
30682;BME280;17439;48.092;11.842;2024-01-30T09:56:09;96881.63;;;6.09;84.54
30682;BME280;17439;48.092;11.842;2024-01-30T09:58:36;96877.22;;;6.20;84.55
30682;BME280;17439;48.092;11.842;2024-01-30T10:01:02;96882.22;;;6.33;84.26
30682;BME280;17439;48.092;11.842;2024-01-30T10:03:29;96880.50;;;6.44;84.23
30682;BME280;17439;48.092;11.842;2024-01-30T10:05:57;96876.88;;;6.55;84.02
30682;BME280;17439;48.092;11.842;2024-01-30T10:08:24;96868.69;;;6.67;84.01
30682;BME280;17439;48.092;11.842;2024-01-30T10:10:52;96865.59;;;6.80;83.84
30682;BME280;17439;48.092;11.842;2024-01-30T10:13:19;96867.09;;;6.93;83.49
30682;BME280;17439;48.092;11.842;2024-01-30T10:15:47;96869.66;;;7.05;82.50
30682;BME280;17439;48.092;11.842;2024-01-30T10:18:14;96859.97;;;7.09;77.16
30682;BME280;17439;48.092;11.842;2024-01-30T10:20:41;96856.13;;;7.27;83.97
30682;BME280;17439;48.092;11.842;2024-01-30T10:23:08;96861.91;;;7.41;83.09
30682;BME280;17439;48.092;11.842;2024-01-30T10:25:35;96855.25;;;7.54;83.68
30682;BME280;17439;48.092;11.842;2024-01-30T10:28:02;96853.22;;;7.66;83.30
30682;BME280;17439;48.092;11.842;2024-01-30T10:30:29;96847.41;;;7.79;82.95
30682;BME280;17439;48.092;11.842;2024-01-30T10:32:56;96847.75;;;7.93;83.58
30682;BME280;17439;48.092;11.842;2024-01-30T10:35:23;96849.75;;;8.08;83.90
30682;BME280;17439;48.092;11.842;2024-01-30T10:37:49;96843.88;;;8.22;83.44
30682;BME280;17439;48.092;11.842;2024-01-30T10:40:16;96838.31;;;8.39;82.82
30682;BME280;17439;48.092;11.842;2024-01-30T10:42:45;96837.84;;;8.52;81.48
30682;BME280;17439;48.092;11.842;2024-01-30T10:45:13;96832.50;;;8.62;82.22
30682;BME280;17439;48.092;11.842;2024-01-30T10:47:40;96831.44;;;8.74;83.50
30682;BME280;17439;48.092;11.842;2024-01-30T10:50:08;96829.34;;;8.91;81.54
30682;BME280;17439;48.092;11.842;2024-01-30T10:52:36;96822.06;;;9.07;79.97
30682;BME280;17439;48.092;11.842;2024-01-30T10:55:04;96818.56;;;9.17;80.26
30682;BME280;17439;48.092;11.842;2024-01-30T10:57:31;96819.66;;;9.21;79.61
30682;BME280;17439;48.092;11.842;2024-01-30T11:00:02;96812.63;;;9.35;79.71
30682;BME280;17439;48.092;11.842;2024-01-30T11:02:30;96810.22;;;9.49;80.06
30682;BME280;17439;48.092;11.842;2024-01-30T11:04:59;96806.16;;;9.57;79.64
30682;BME280;17439;48.092;11.842;2024-01-30T11:07:28;96808.56;;;9.69;78.47
30682;BME280;17439;48.092;11.842;2024-01-30T11:12:25;96798.25;;;9.86;78.83
30682;BME280;17439;48.092;11.842;2024-01-30T11:20:30;96797.41;;;10.16;69.20
30682;BME280;17439;48.092;11.842;2024-01-30T11:22:57;96789.25;;;10.27;77.37
30682;BME280;17439;48.092;11.842;2024-01-30T11:25:25;96794.38;;;10.39;78.40
30682;BME280;17439;48.092;11.842;2024-01-30T11:27:54;96782.16;;;10.51;75.84
30682;BME280;17439;48.092;11.842;2024-01-30T11:30:26;96785.88;;;10.61;72.95
30682;BME280;17439;48.092;11.842;2024-01-30T11:33:03;96787.72;;;10.70;73.53
30682;BME280;17439;48.092;11.842;2024-01-30T11:35:33;96770.63;;;10.80;76.85
30682;BME280;17439;48.092;11.842;2024-01-30T11:38:00;96777.38;;;10.83;79.67
30682;BME280;17439;48.092;11.842;2024-01-30T11:40:28;96771.84;;;10.98;75.06
30682;BME280;17439;48.092;11.842;2024-01-30T11:42:56;96772.94;;;11.02;76.54
30682;BME280;17439;48.092;11.842;2024-01-30T11:45:26;96770.38;;;11.16;73.07
30682;BME280;17439;48.092;11.842;2024-01-30T11:47:53;96765.97;;;11.25;72.00
30682;BME280;17439;48.092;11.842;2024-01-30T11:50:20;96759.94;;;11.34;73.05
30682;BME280;17439;48.092;11.842;2024-01-30T11:52:47;96766.13;;;11.39;73.84
30682;BME280;17439;48.092;11.842;2024-01-30T11:55:14;96766.31;;;11.48;72.36
30682;BME280;17439;48.092;11.842;2024-01-30T11:57:41;96766.81;;;11.55;71.63
30682;BME280;17439;48.092;11.842;2024-01-30T12:00:18;96761.63;;;11.59;66.97
30682;BME280;17439;48.092;11.842;2024-01-30T12:02:53;96751.28;;;11.61;67.82
30682;BME280;17439;48.092;11.842;2024-01-30T12:05:20;96746.91;;;11.65;71.68
30682;BME280;17439;48.092;11.842;2024-01-30T12:07:47;96751.47;;;11.70;73.91
30682;BME280;17439;48.092;11.842;2024-01-30T12:10:14;96747.06;;;11.74;73.95
30682;BME280;17439;48.092;11.842;2024-01-30T12:12:42;96743.00;;;11.76;71.56
30682;BME280;17439;48.092;11.842;2024-01-30T12:15:10;96749.19;;;11.82;74.56
30682;BME280;17439;48.092;11.842;2024-01-30T12:17:37;96742.91;;;11.87;74.47
30682;BME280;17439;48.092;11.842;2024-01-30T12:20:11;96752.63;;;11.93;70.55
30682;BME280;17439;48.092;11.842;2024-01-30T12:22:42;96744.72;;;11.96;73.16
30682;BME280;17439;48.092;11.842;2024-01-30T12:25:10;96743.31;;;11.99;73.45
30682;BME280;17439;48.092;11.842;2024-01-30T12:27:38;96748.72;;;12.04;71.74
30682;BME280;17439;48.092;11.842;2024-01-30T12:30:09;96737.25;;;12.07;69.35
30682;BME280;17439;48.092;11.842;2024-01-30T12:32:44;96738.81;;;12.13;71.79
30682;BME280;17439;48.092;11.842;2024-01-30T12:35:16;96733.34;;;12.19;71.47
30682;BME280;17439;48.092;11.842;2024-01-30T12:37:45;96736.00;;;12.24;72.63
30682;BME280;17439;48.092;11.842;2024-01-30T12:40:14;96735.94;;;12.29;71.10
30682;BME280;17439;48.092;11.842;2024-01-30T12:42:42;96738.88;;;12.32;70.35
30682;BME280;17439;48.092;11.842;2024-01-30T12:45:09;96728.25;;;12.36;68.40
30682;BME280;17439;48.092;11.842;2024-01-30T12:47:35;96723.81;;;12.40;68.16
30682;BME280;17439;48.092;11.842;2024-01-30T12:50:03;96725.75;;;12.40;69.16
30682;BME280;17439;48.092;11.842;2024-01-30T12:52:30;96720.81;;;12.42;69.33
30682;BME280;17439;48.092;11.842;2024-01-30T12:54:57;96722.16;;;12.44;71.23
30682;BME280;17439;48.092;11.842;2024-01-30T12:57:24;96719.16;;;12.46;71.95
30682;BME280;17439;48.092;11.842;2024-01-30T12:59:51;96718.56;;;12.49;71.87
30682;BME280;17439;48.092;11.842;2024-01-30T13:02:18;96719.59;;;12.53;71.77
30682;BME280;17439;48.092;11.842;2024-01-30T13:04:45;96713.25;;;12.58;72.46
30682;BME280;17439;48.092;11.842;2024-01-30T13:07:16;96714.53;;;12.65;73.13